Time;durP1;ratioP1;P1;durP2;ratioP2;P2;SDS_P1;SDS_P2;PMS_P1;PMS_P2;Temp;Humidity;BMP_temperature;BMP_pressure;BME280_temperature;BME280_humidity;BME280_pressure;Samples;Min_cycle;Max_cycle;Signal;HPM_P1;HPM_P2
2023/08/30 00:03:08;;;;;;;3.53;1.92;;;20.00;69.40;;;;;;10405093;28;20037;-57
2023/08/30 00:08:09;;;;;;;2.33;1.77;;;20.10;69.40;;;;;;10418691;28;20083;-58
2023/08/30 00:13:10;;;;;;;3.65;1.85;;;20.10;69.50;;;;;;10403735;28;20061;-57
2023/08/30 00:18:11;;;;;;;2.33;1.30;;;20.00;69.40;;;;;;10404978;28;20060;-57
2023/08/30 00:23:11;;;;;;;2.53;1.85;;;20.00;69.40;;;;;;10404493;28;20488;-59
2023/08/30 00:28:12;;;;;;;2.55;1.38;;;20.00;69.40;;;;;;10432708;28;20036;-58
2023/08/30 00:33:13;;;;;;;2.35;1.75;;;20.00;69.40;;;;;;10405710;28;20499;-58
2023/08/30 00:38:14;;;;;;;2.20;1.60;;;20.00;69.40;;;;;;10404979;28;20029;-58
2023/08/30 00:43:14;;;;;;;3.80;1.80;;;20.00;69.40;;;;;;10408654;28;20075;-58
2023/08/30 00:48:18;;;;;;;3.78;1.98;;;20.00;69.40;;;;;;10412429;28;20091;-58
2023/08/30 00:53:19;;;;;;;2.63;1.75;;;20.00;69.30;;;;;;10422574;28;20031;-56
2023/08/30 00:58:20;;;;;;;2.38;1.83;;;20.00;69.20;;;;;;10423462;28;20492;-58
2023/08/30 01:03:22;;;;;;;2.28;1.65;;;20.00;69.20;;;;;;10424939;28;20025;-58
2023/08/30 01:08:23;;;;;;;4.47;2.50;;;20.00;69.20;;;;;;10411407;28;20048;-58
2023/08/30 01:13:27;;;;;;;4.30;2.13;;;20.00;69.10;;;;;;10439262;28;20056;-57
2023/08/30 01:18:34;;;;;;;3.20;2.03;;;20.00;69.10;;;;;;10422223;28;20029;-57
2023/08/30 01:24:00;;;;;;;2.80;2.10;;;20.00;69.10;;;;;;10417062;28;20056;-57
2023/08/30 01:29:03;;;;;;;2.45;1.67;;;20.00;69.10;;;;;;10414812;28;20349;-58
2023/08/30 01:34:04;;;;;;;2.95;2.30;;;19.90;69.00;;;;;;10409138;28;20040;-58
2023/08/30 01:39:05;;;;;;;2.47;1.92;;;19.90;69.10;;;;;;10410788;28;20029;-58
2023/08/30 01:44:07;;;;;;;4.18;2.28;;;19.90;69.10;;;;;;10425903;28;20033;-56
2023/08/30 01:49:09;;;;;;;2.63;2.00;;;19.90;69.10;;;;;;10409052;28;20079;-57
2023/08/30 01:54:17;;;;;;;3.45;1.95;;;19.90;69.10;;;;;;10412842;28;20030;-59
2023/08/30 01:59:17;;;;;;;4.32;2.47;;;19.90;69.10;;;;;;10415479;28;20029;-58
2023/08/30 02:04:18;;;;;;;2.78;1.80;;;19.90;69.10;;;;;;10424867;28;20816;-55
2023/08/30 02:09:29;;;;;;;2.47;1.92;;;19.90;69.00;;;;;;10408695;28;20030;-58
2023/08/30 02:14:32;;;;;;;2.88;1.88;;;19.90;69.00;;;;;;10409006;28;20492;-57
2023/08/30 02:19:34;;;;;;;3.00;2.28;;;19.90;69.00;;;;;;10421077;28;20029;-57
2023/08/30 02:24:35;;;;;;;2.50;2.03;;;19.90;69.00;;;;;;10409043;28;20040;-58
2023/08/30 02:29:35;;;;;;;2.90;1.55;;;19.90;69.60;;;;;;10436998;28;20051;-56
2023/08/30 02:34:37;;;;;;;4.47;1.88;;;19.80;68.90;;;;;;10408754;28;20033;-56
2023/08/30 02:39:37;;;;;;;3.25;1.80;;;19.90;68.90;;;;;;10407555;28;20025;-57
2023/08/30 02:44:38;;;;;;;2.30;1.77;;;19.90;68.80;;;;;;10408220;28;20495;-56
2023/08/30 02:49:39;;;;;;;4.07;2.53;;;19.80;68.80;;;;;;10408070;28;20033;-58
2023/08/30 02:54:40;;;;;;;3.78;2.50;;;19.80;68.80;;;;;;10407385;28;20029;-56
2023/08/30 02:59:40;;;;;;;2.67;2.28;;;19.90;68.70;;;;;;10407365;28;20544;-58
2023/08/30 03:04:41;;;;;;;2.95;1.90;;;19.90;68.80;;;;;;10407106;28;20032;-58
2023/08/30 03:09:42;;;;;;;3.00;2.10;;;19.80;68.80;;;;;;10406641;28;20025;-57
2023/08/30 03:14:42;;;;;;;2.85;2.10;;;19.80;68.70;;;;;;10407573;28;20045;-58
2023/08/30 03:19:43;;;;;;;3.10;2.33;;;19.80;68.70;;;;;;10406405;28;20030;-58
2023/08/30 03:24:44;;;;;;;3.20;2.13;;;19.80;68.60;;;;;;10408143;28;20082;-58
2023/08/30 03:29:45;;;;;;;3.60;2.50;;;19.80;68.60;;;;;;10444901;28;20033;-57
2023/08/30 03:34:45;;;;;;;4.35;2.60;;;19.80;68.60;;;;;;10409390;28;20116;-57
2023/08/30 03:39:46;;;;;;;2.67;1.65;;;19.80;68.60;;;;;;10421722;28;20033;-57
2023/08/30 03:44:47;;;;;;;4.03;1.88;;;19.90;69.40;;;;;;10421689;28;20021;-56
2023/08/30 03:49:48;;;;;;;3.47;2.17;;;19.90;69.30;;;;;;10421882;28;20036;-58
2023/08/30 03:54:48;;;;;;;4.97;2.53;;;19.90;69.20;;;;;;10422492;28;20029;-58
2023/08/30 03:59:49;;;;;;;2.63;2.28;;;19.90;69.00;;;;;;10420862;28;20486;-57
2023/08/30 04:04:50;;;;;;;3.55;2.10;;;19.90;69.10;;;;;;10421169;28;20014;-56
2023/08/30 04:09:51;;;;;;;3.58;2.25;;;19.90;69.20;;;;;;10429228;28;20033;-58
2023/08/30 04:14:51;;;;;;;3.08;2.13;;;19.90;69.10;;;;;;10448697;28;20567;-58
2023/08/30 04:19:52;;;;;;;3.70;2.30;;;19.80;69.10;;;;;;10453099;28;20028;-58
2023/08/30 04:24:53;;;;;;;3.65;2.80;;;19.90;69.20;;;;;;10428720;28;20021;-57
2023/08/30 04:29:54;;;;;;;4.85;2.50;;;19.80;69.00;;;;;;10437601;28;20037;-57
2023/08/30 04:34:55;;;;;;;4.00;2.55;;;19.80;68.80;;;;;;10413010;28;20045;-57
2023/08/30 04:39:55;;;;;;;4.50;3.10;;;19.80;68.70;;;;;;10424026;28;20048;-57
2023/08/30 04:44:59;;;;;;;3.58;2.10;;;19.80;68.80;;;;;;10443519;28;20226;-58
2023/08/30 04:50:00;;;;;;;3.35;2.55;;;19.80;68.60;;;;;;10434308;28;20057;-59
2023/08/30 04:55:01;;;;;;;3.55;2.58;;;19.70;68.60;;;;;;10431674;28;20033;-58
2023/08/30 05:00:04;;;;;;;4.00;2.47;;;19.80;69.10;;;;;;10414990;28;20396;-58
2023/08/30 05:05:05;;;;;;;8.20;3.08;;;19.80;68.80;;;;;;10414568;28;20034;-56
2023/08/30 05:10:07;;;;;;;10.77;3.20;;;19.80;68.30;;;;;;10414510;28;20034;-58
2023/08/30 05:15:08;;;;;;;5.32;2.88;;;19.90;68.90;;;;;;10414493;28;20049;-59
2023/08/30 05:20:10;;;;;;;5.90;2.78;;;19.90;68.90;;;;;;10414108;28;20025;-58
2023/08/30 05:25:10;;;;;;;6.88;2.92;;;19.90;69.30;;;;;;10419202;28;20028;-58
2023/08/30 05:30:12;;;;;;;8.90;3.55;;;19.90;69.60;;;;;;10436386;28;20029;-56
2023/08/30 05:35:13;;;;;;;7.45;3.45;;;19.90;68.90;;;;;;10413819;28;20025;-56
2023/08/30 05:40:16;;;;;;;7.22;3.13;;;20.00;69.00;;;;;;10413140;28;20026;-58
2023/08/30 05:45:17;;;;;;;6.57;3.25;;;20.10;68.50;;;;;;10413413;28;20088;-57
2023/08/30 05:50:18;;;;;;;8.18;3.30;;;20.00;68.90;;;;;;10424205;28;20082;-57
2023/08/30 05:55:19;;;;;;;9.80;4.35;;;20.10;69.00;;;;;;10415301;28;20423;-58
2023/08/30 06:00:20;;;;;;;7.22;3.08;;;20.00;68.90;;;;;;10412566;28;20025;-58
2023/08/30 06:05:20;;;;;;;6.13;3.55;;;19.90;69.20;;;;;;10412607;28;20087;-56
2023/08/30 06:10:21;;;;;;;8.20;3.40;;;19.90;69.30;;;;;;10412040;28;20040;-56
2023/08/30 06:15:22;;;;;;;7.30;3.83;;;19.90;69.20;;;;;;10416778;28;20056;-57
2023/08/30 06:20:23;;;;;;;5.13;2.88;;;19.90;69.30;;;;;;10427866;28;20435;-56
2023/08/30 06:25:23;;;;;;;5.47;3.70;;;19.80;69.10;;;;;;10418906;28;20029;-56
2023/08/30 06:30:30;;;;;;;6.80;3.83;;;19.80;69.30;;;;;;10433339;28;20030;-56
2023/08/30 06:35:31;;;;;;;6.15;3.28;;;19.70;68.90;;;;;;10411418;28;20063;-56
2023/08/30 06:40:32;;;;;;;8.57;3.80;;;19.80;69.10;;;;;;10428762;28;20055;-56
2023/08/30 06:45:33;;;;;;;8.80;4.00;;;19.80;69.20;;;;;;10426477;28;20049;-56
2023/08/30 06:50:35;;;;;;;6.93;3.75;;;19.80;69.20;;;;;;10429018;28;20036;-55
2023/08/30 06:55:37;;;;;;;5.40;3.28;;;19.80;69.40;;;;;;10427594;28;20026;-56
2023/08/30 07:00:38;;;;;;;6.28;4.28;;;19.90;69.40;;;;;;10425473;28;20038;-56
2023/08/30 07:05:38;;;;;;;6.55;3.65;;;19.90;69.40;;;;;;10426417;28;20075;-55
2023/08/30 07:10:39;;;;;;;8.07;4.47;;;19.90;69.50;;;;;;10425828;28;20029;-56
2023/08/30 07:15:40;;;;;;;8.15;3.28;;;19.90;69.60;;;;;;10409601;28;20042;-56
2023/08/30 07:20:41;;;;;;;14.43;4.68;;;19.90;69.40;;;;;;10409668;28;20108;-56
2023/08/30 07:25:42;;;;;;;15.80;4.25;;;19.80;69.50;;;;;;10422718;28;20038;-56
2023/08/30 07:30:44;;;;;;;23.88;5.18;;;19.90;69.60;;;;;;10423078;28;20050;-56
2023/08/30 07:35:44;;;;;;;37.25;9.02;;;19.80;69.70;;;;;;10409709;28;20029;-54
2023/08/30 07:40:45;;;;;;;30.38;6.70;;;19.80;69.70;;;;;;10408722;28;20044;-55
2023/08/30 07:45:46;;;;;;;25.27;7.47;;;19.90;69.80;;;;;;10424146;28;20017;-55
2023/08/30 07:50:46;;;;;;;19.48;6.70;;;19.80;69.70;;;;;;10435079;28;20029;-55
2023/08/30 07:55:50;;;;;;;24.17;8.05;;;19.80;69.80;;;;;;10450185;28;20464;-56
2023/08/30 08:00:52;;;;;;;22.73;6.60;;;19.90;69.90;;;;;;10450086;28;20024;-56
2023/08/30 08:05:53;;;;;;;17.17;5.93;;;19.90;69.80;;;;;;10450188;28;20035;-56
2023/08/30 08:10:54;;;;;;;19.95;6.03;;;19.90;70.60;;;;;;10429294;28;20117;-55
2023/08/30 08:15:58;;;;;;;24.90;6.22;;;19.90;70.60;;;;;;10408499;28;20045;-55
2023/08/30 08:20:59;;;;;;;18.15;5.80;;;19.80;70.60;;;;;;10408019;28;20037;-55
2023/08/30 08:26:00;;;;;;;23.30;7.40;;;19.90;70.30;;;;;;10408293;28;20021;-56
2023/08/30 08:31:01;;;;;;;22.10;6.13;;;19.80;70.80;;;;;;10448811;28;20083;-55
2023/08/30 08:36:02;;;;;;;20.85;4.95;;;19.90;70.70;;;;;;10449201;28;20028;-56
2023/08/30 08:41:05;;;;;;;18.67;5.85;;;19.90;70.80;;;;;;10449088;28;20460;-56
2023/08/30 08:46:08;;;;;;;18.58;5.35;;;19.90;70.80;;;;;;10432712;28;20076;-56
2023/08/30 08:51:09;;;;;;;12.70;4.53;;;19.90;70.50;;;;;;10430877;28;20116;-55
2023/08/30 08:56:12;;;;;;;13.40;4.65;;;19.90;70.60;;;;;;10449080;28;20372;-56
2023/08/30 09:01:13;;;;;;;11.60;4.68;;;19.80;70.80;;;;;;10447504;28;20021;-56
2023/08/30 09:06:15;;;;;;;11.65;5.00;;;19.90;71.00;;;;;;10455596;28;20468;-56
2023/08/30 09:11:16;;;;;;;16.67;5.22;;;19.80;71.00;;;;;;10454515;28;20032;-57
2023/08/30 09:16:17;;;;;;;18.73;4.35;;;19.90;71.00;;;;;;10443580;28;20061;-55
2023/08/30 09:21:17;;;;;;;14.00;4.65;;;19.80;70.70;;;;;;10433158;28;20029;-59
2023/08/30 09:26:18;;;;;;;16.27;6.35;;;19.80;70.70;;;;;;10429876;28;20044;-59
2023/08/30 09:31:20;;;;;;;12.15;3.70;;;19.80;70.90;;;;;;10434106;28;20017;-59
2023/08/30 09:36:20;;;;;;;9.52;3.63;;;19.70;70.90;;;;;;10432515;28;20427;-58
2023/08/30 09:41:21;;;;;;;15.73;5.72;;;19.80;70.80;;;;;;10432098;28;20017;-59
2023/08/30 09:46:23;;;;;;;12.32;3.78;;;19.70;70.90;;;;;;10438666;28;20033;-58
2023/08/30 09:51:26;;;;;;;11.30;4.80;;;19.70;70.70;;;;;;10431363;28;20032;-58
2023/08/30 09:56:28;;;;;;;10.57;3.50;;;19.80;71.10;;;;;;10436382;28;20022;-59
2023/08/30 10:01:29;;;;;;;14.95;4.00;;;19.80;70.90;;;;;;10419958;28;20667;-58
2023/08/30 10:06:32;;;;;;;11.57;4.35;;;19.80;70.90;;;;;;10412749;28;20030;-58
2023/08/30 10:11:37;;;;;;;10.38;4.55;;;19.90;70.90;;;;;;10416980;28;20087;-58
2023/08/30 10:16:48;;;;;;;9.23;3.35;;;19.90;71.00;;;;;;10430026;28;20049;-58
2023/08/30 10:21:59;;;;;;;11.27;3.75;;;19.90;71.00;;;;;;10453014;28;20037;-60
2023/08/30 10:27:06;;;;;;;11.55;4.07;;;19.90;71.00;;;;;;10419613;28;20033;-59
2023/08/30 10:32:07;;;;;;;11.55;3.75;;;19.80;70.90;;;;;;10427904;28;20236;-57
2023/08/30 10:37:10;;;;;;;9.88;3.50;;;19.80;71.00;;;;;;10422176;28;20499;-58
2023/08/30 10:42:15;;;;;;;7.18;3.65;;;19.70;71.10;;;;;;10435116;28;20031;-58
2023/08/30 10:47:23;;;;;;;7.57;3.53;;;19.80;71.20;;;;;;10410674;28;20064;-59
2023/08/30 10:52:25;;;;;;;8.00;3.88;;;19.70;71.20;;;;;;10409789;28;20038;-57
2023/08/30 10:57:25;;;;;;;9.43;3.33;;;19.80;71.10;;;;;;10409946;28;20034;-59
2023/08/30 11:02:26;;;;;;;5.40;2.97;;;19.80;71.20;;;;;;10409415;28;20021;-58
2023/08/30 11:07:27;;;;;;;6.57;2.78;;;19.70;71.20;;;;;;10409188;28;20687;-58
2023/08/30 11:12:30;;;;;;;7.18;3.75;;;19.70;71.30;;;;;;10409007;28;20374;-57
2023/08/30 11:17:31;;;;;;;5.45;3.88;;;19.70;71.30;;;;;;10409068;28;20040;-59
2023/08/30 11:22:32;;;;;;;8.40;3.03;;;19.70;71.30;;;;;;10409065;28;20021;-58
2023/08/30 11:27:33;;;;;;;6.68;3.00;;;19.70;71.30;;;;;;10414214;28;20025;-61
2023/08/30 11:32:39;;;;;;;15.38;3.58;;;19.80;71.20;;;;;;10428597;28;20049;-59
2023/08/30 11:37:41;;;;;;;11.63;3.13;;;19.80;71.30;;;;;;10435746;28;20041;-57
2023/08/30 11:42:43;;;;;;;11.25;3.55;;;19.80;71.20;;;;;;10449191;28;20527;-59
2023/08/30 11:47:44;;;;;;;12.45;3.35;;;19.80;71.50;;;;;;10449566;28;20424;-58
2023/08/30 11:52:45;;;;;;;11.75;4.15;;;19.90;71.70;;;;;;10434575;28;20029;-59
2023/08/30 11:57:50;;;;;;;8.30;2.92;;;19.90;71.60;;;;;;10415449;28;20034;-59
2023/08/30 12:02:51;;;;;;;10.45;3.88;;;19.90;71.30;;;;;;10408111;28;20538;-59
2023/08/30 12:07:51;;;;;;;7.57;3.45;;;19.90;71.30;;;;;;10408251;28;20500;-59
2023/08/30 12:12:52;;;;;;;6.05;3.03;;;19.90;71.20;;;;;;10407299;28;20041;-60
2023/08/30 12:17:53;;;;;;;7.68;2.95;;;19.90;71.10;;;;;;10407972;28;20479;-59
2023/08/30 12:22:54;;;;;;;6.90;2.95;;;19.90;71.10;;;;;;10407111;28;20030;-58
2023/08/30 12:27:54;;;;;;;5.43;2.63;;;19.90;71.40;;;;;;10436496;28;20367;-60
2023/08/30 12:33:03;;;;;;;9.60;2.95;;;20.10;71.30;;;;;;10414766;28;20041;-58
2023/08/30 12:38:04;;;;;;;8.00;3.67;;;20.10;71.60;;;;;;10425338;28;20087;-59
2023/08/30 12:43:05;;;;;;;7.95;3.40;;;20.10;71.50;;;;;;10414668;28;20079;-58
2023/08/30 12:48:06;;;;;;;6.28;3.03;;;20.20;71.10;;;;;;10415098;28;20052;-60
2023/08/30 12:53:07;;;;;;;10.10;4.00;;;20.20;71.10;;;;;;10415118;28;20044;-61
2023/08/30 12:58:09;;;;;;;13.00;3.15;;;20.10;71.10;;;;;;10431896;28;20022;-60
2023/08/30 13:03:10;;;;;;;11.40;3.05;;;20.10;71.20;;;;;;10426308;28;20050;-60
2023/08/30 13:08:10;;;;;;;8.27;3.13;;;20.10;71.10;;;;;;10427753;28;20026;-60
2023/08/30 13:13:11;;;;;;;9.07;2.95;;;20.10;71.10;;;;;;10413673;28;20076;-60
2023/08/30 13:18:12;;;;;;;4.57;2.45;;;20.10;71.10;;;;;;10413303;28;20360;-59
2023/08/30 13:23:13;;;;;;;8.25;2.65;;;20.10;71.10;;;;;;10413490;28;20060;-60
2023/08/30 13:28:13;;;;;;;7.63;3.38;;;20.10;71.10;;;;;;10431290;28;20029;-59
2023/08/30 13:33:14;;;;;;;7.20;3.17;;;20.10;71.10;;;;;;10412958;28;20029;-60
2023/08/30 13:38:15;;;;;;;5.80;2.67;;;20.10;71.10;;;;;;10412356;28;20535;-60
2023/08/30 13:43:16;;;;;;;4.20;2.35;;;20.10;70.90;;;;;;10412592;28;20025;-60
2023/08/30 13:48:17;;;;;;;4.45;2.80;;;20.10;70.80;;;;;;10411937;28;20065;-61
2023/08/30 13:53:18;;;;;;;7.45;3.33;;;20.00;70.90;;;;;;10411950;28;20162;-60
2023/08/30 13:58:19;;;;;;;6.75;2.58;;;20.10;70.70;;;;;;10414196;28;20503;-61
2023/08/30 14:03:20;;;;;;;9.85;3.08;;;20.10;70.70;;;;;;10412299;28;20030;-61
2023/08/30 14:08:21;;;;;;;8.15;2.50;;;20.00;70.80;;;;;;10411415;28;20029;-61
2023/08/30 14:13:22;;;;;;;4.63;2.58;;;20.10;70.60;;;;;;10411380;28;20058;-60
2023/08/30 14:18:23;;;;;;;9.75;3.00;;;20.00;70.20;;;;;;10411137;28;20026;-61
2023/08/30 14:23:25;;;;;;;7.05;2.40;;;20.00;70.00;;;;;;10411372;28;20419;-60
2023/08/30 14:28:26;;;;;;;7.78;2.25;;;20.10;70.10;;;;;;10439477;28;20030;-60
2023/08/30 14:33:27;;;;;;;5.38;3.00;;;20.20;69.60;;;;;;10410983;28;20072;-59
2023/08/30 14:38:28;;;;;;;7.35;2.15;;;20.10;69.70;;;;;;10412990;28;20362;-60
2023/08/30 14:43:29;;;;;;;7.60;2.30;;;20.10;69.90;;;;;;10410664;28;20122;-59
2023/08/30 14:48:32;;;;;;;4.70;2.75;;;20.00;70.10;;;;;;10425159;28;20390;-60
2023/08/30 14:53:32;;;;;;;5.47;2.55;;;20.00;70.20;;;;;;10410713;28;20037;-59
2023/08/30 14:58:35;;;;;;;11.05;2.50;;;20.00;70.20;;;;;;10423038;28;20026;-61
2023/08/30 15:03:36;;;;;;;8.77;2.42;;;20.10;70.10;;;;;;10437886;28;20446;-59
2023/08/30 15:08:36;;;;;;;8.65;2.35;;;20.40;69.60;;;;;;10449036;28;20074;-60
2023/08/30 15:13:37;;;;;;;14.20;3.22;;;20.50;70.20;;;;;;10450374;28;20060;-59
2023/08/30 15:18:38;;;;;;;14.57;3.15;;;20.60;70.30;;;;;;10450226;28;20040;-59
2023/08/30 15:23:39;;;;;;;18.35;3.42;;;20.80;71.10;;;;;;10430081;28;20029;-61
2023/08/30 15:28:40;;;;;;;25.30;4.18;;;20.90;69.70;;;;;;10427200;28;20405;-60
2023/08/30 15:33:42;;;;;;;13.25;3.45;;;21.10;69.80;;;;;;10432434;28;20026;-60
2023/08/30 15:38:45;;;;;;;15.75;4.55;;;21.20;70.90;;;;;;10450333;28;20036;-62
2023/08/30 15:43:45;;;;;;;11.07;3.50;;;21.00;74.50;;;;;;10435234;28;20030;-61
2023/08/30 15:48:47;;;;;;;10.52;2.97;;;21.00;72.20;;;;;;10420264;28;20036;-61
2023/08/30 15:53:48;;;;;;;6.53;2.25;;;20.90;72.00;;;;;;10443841;28;20021;-60
2023/08/30 15:58:49;;;;;;;8.75;2.28;;;20.60;72.30;;;;;;10439724;28;20639;-59
2023/08/30 16:03:50;;;;;;;4.53;1.98;;;20.60;71.80;;;;;;10418482;28;20040;-60
2023/08/30 16:08:51;;;;;;;7.60;2.40;;;20.60;72.70;;;;;;10407462;28;20032;-59
2023/08/30 16:13:51;;;;;;;6.70;2.80;;;20.80;72.80;;;;;;10411504;28;20210;-59
2023/08/30 16:18:52;;;;;;;14.82;2.70;;;20.80;72.80;;;;;;10415631;28;20171;-59
2023/08/30 16:23:53;;;;;;;11.70;2.47;;;20.80;72.70;;;;;;10414368;28;20021;-59
2023/08/30 16:28:53;;;;;;;11.77;2.63;;;20.90;72.80;;;;;;10433869;28;20030;-58
2023/08/30 16:33:54;;;;;;;15.63;2.25;;;20.80;72.40;;;;;;10423268;28;20029;-59
2023/08/30 16:38:55;;;;;;;7.65;1.90;;;20.70;72.90;;;;;;10431074;28;20640;-61
2023/08/30 16:43:56;;;;;;;10.55;3.33;;;20.70;72.50;;;;;;10415240;28;20020;-59
2023/08/30 16:48:56;;;;;;;6.93;2.30;;;20.60;72.80;;;;;;10414933;28;20048;-60
2023/08/30 16:53:57;;;;;;;10.25;3.45;;;20.60;72.90;;;;;;10414703;28;20501;-63
2023/08/30 16:58:58;;;;;;;8.38;2.42;;;20.60;73.00;;;;;;10416831;28;20033;-60
2023/08/30 17:03:58;;;;;;;15.68;2.60;;;20.60;73.00;;;;;;10414631;28;20040;-60
2023/08/30 17:09:06;;;;;;;9.52;2.53;;;20.50;72.70;;;;;;10418810;28;20373;-59
2023/08/30 17:14:12;;;;;;;11.98;2.83;;;20.40;72.60;;;;;;10441504;28;20048;-58
2023/08/30 17:19:12;;;;;;;10.05;2.60;;;20.40;72.60;;;;;;10454389;28;20628;-59
2023/08/30 17:24:13;;;;;;;7.57;2.20;;;20.40;72.90;;;;;;10444942;28;20091;-59
2023/08/30 17:29:14;;;;;;;10.43;2.72;;;20.30;72.90;;;;;;10412979;28;20030;-58
2023/08/30 17:34:15;;;;;;;5.80;2.30;;;20.20;72.90;;;;;;10413443;28;20057;-59
2023/08/30 17:39:16;;;;;;;5.47;2.50;;;20.20;73.00;;;;;;10426982;28;20033;-59
2023/08/30 17:44:16;;;;;;;8.70;2.53;;;20.20;72.90;;;;;;10454439;28;20407;-58
2023/08/30 17:49:17;;;;;;;6.00;2.58;;;20.20;72.90;;;;;;10439998;28;20025;-59
2023/08/30 17:54:18;;;;;;;8.93;2.40;;;20.20;72.80;;;;;;10454477;28;20075;-59
2023/08/30 17:59:19;;;;;;;6.43;2.72;;;20.10;72.80;;;;;;10452307;28;20032;-59
2023/08/30 18:04:20;;;;;;;7.00;1.92;;;20.10;72.80;;;;;;10454358;28;20013;-58
2023/08/30 18:09:21;;;;;;;5.15;2.17;;;20.10;72.80;;;;;;10453600;28;20039;-59
2023/08/30 18:14:21;;;;;;;4.13;2.15;;;20.10;72.80;;;;;;10453782;28;20076;-59
2023/08/30 18:19:22;;;;;;;3.10;1.63;;;20.10;72.80;;;;;;10453129;28;20021;-59
2023/08/30 18:24:23;;;;;;;7.45;2.30;;;20.00;72.70;;;;;;10441305;28;20373;-59
2023/08/30 18:29:26;;;;;;;8.05;2.95;;;20.00;72.70;;;;;;10416785;28;20037;-58
2023/08/30 18:34:27;;;;;;;4.93;2.47;;;20.10;72.70;;;;;;10424069;28;20078;-60
2023/08/30 18:39:28;;;;;;;4.30;1.63;;;20.10;72.50;;;;;;10426766;28;20057;-60
2023/08/30 18:44:32;;;;;;;5.97;2.67;;;20.10;72.40;;;;;;10446847;28;20511;-59
2023/08/30 18:49:33;;;;;;;5.28;2.33;;;20.20;72.30;;;;;;10452074;28;20086;-59
2023/08/30 18:54:33;;;;;;;6.50;2.08;;;20.30;72.30;;;;;;10432087;28;20030;-58
2023/08/30 18:59:34;;;;;;;5.53;2.30;;;20.30;72.30;;;;;;10441590;28;20037;-59
2023/08/30 19:04:35;;;;;;;9.18;2.38;;;20.30;72.40;;;;;;10429469;28;20025;-59
2023/08/30 19:09:40;;;;;;;8.07;2.10;;;20.30;72.40;;;;;;10426288;28;20028;-60
2023/08/30 19:14:41;;;;;;;4.57;1.60;;;20.30;72.50;;;;;;10410209;28;20052;-64
2023/08/30 19:19:41;;;;;;;6.28;2.70;;;20.20;72.60;;;;;;10409428;28;20037;-64
2023/08/30 19:24:42;;;;;;;5.85;2.70;;;20.10;72.80;;;;;;10410818;28;20477;-64
2023/08/30 19:29:44;;;;;;;3.53;1.73;;;20.00;72.80;;;;;;10424020;28;20369;-64
2023/08/30 19:34:49;;;;;;;4.15;2.08;;;20.00;72.70;;;;;;10410085;28;20116;-64
2023/08/30 19:39:50;;;;;;;7.43;2.05;;;20.00;72.70;;;;;;10409114;28;20464;-64
2023/08/30 19:44:57;;;;;;;5.03;1.88;;;20.00;72.60;;;;;;10424609;28;20079;-64
2023/08/30 19:49:58;;;;;;;5.80;1.83;;;20.00;72.50;;;;;;10423429;28;20722;-64
2023/08/30 19:54:59;;;;;;;4.00;1.70;;;19.90;72.40;;;;;;10407847;28;20037;-64
2023/08/30 20:00:00;;;;;;;5.35;2.08;;;19.90;72.20;;;;;;10408400;28;20033;-64
2023/08/30 20:05:01;;;;;;;2.95;1.50;;;19.90;72.30;;;;;;10407337;28;20458;-63
2023/08/30 20:10:03;;;;;;;4.22;1.45;;;19.90;72.20;;;;;;10422926;28;20075;-64
2023/08/30 20:15:04;;;;;;;2.97;1.48;;;19.90;72.70;;;;;;10420422;28;20532;-64
2023/08/30 20:20:06;;;;;;;4.53;1.60;;;19.90;72.20;;;;;;10406900;28;20029;-65
2023/08/30 20:25:09;;;;;;;3.05;1.40;;;19.90;72.10;;;;;;10413323;28;20497;-64
2023/08/30 20:30:10;;;;;;;3.03;1.33;;;19.90;72.10;;;;;;10416571;28;20836;-64
2023/08/30 20:35:11;;;;;;;4.53;1.45;;;19.90;72.10;;;;;;10408187;28;20025;-64
2023/08/30 20:40:12;;;;;;;1.88;1.13;;;19.80;72.00;;;;;;10407846;28;20088;-64
2023/08/30 20:45:14;;;;;;;2.33;1.10;;;19.80;72.00;;;;;;10407183;28;20041;-63
2023/08/30 20:50:14;;;;;;;1.60;1.08;;;19.90;72.10;;;;;;10421403;28;20030;-64
2023/08/30 20:55:15;;;;;;;2.75;1.38;;;19.80;72.00;;;;;;10407907;28;20033;-64
2023/08/30 21:00:16;;;;;;;2.20;1.20;;;19.80;71.90;;;;;;10424554;28;20112;-64
2023/08/30 21:05:17;;;;;;;1.83;1.38;;;19.80;71.90;;;;;;10415035;28;20041;-64
2023/08/30 21:10:18;;;;;;;2.53;1.40;;;19.80;71.90;;;;;;10414669;28;20455;-64
2023/08/30 21:15:18;;;;;;;2.85;1.60;;;19.80;71.80;;;;;;10430205;28;20049;-64
2023/08/30 21:20:19;;;;;;;3.65;1.30;;;19.80;71.80;;;;;;10414253;28;20029;-64
2023/08/30 21:25:22;;;;;;;2.33;1.33;;;19.80;72.40;;;;;;10420601;28;20025;-64
2023/08/30 21:30:23;;;;;;;2.78;1.40;;;19.70;71.60;;;;;;10435234;28;20041;-63
2023/08/30 21:35:23;;;;;;;2.17;1.23;;;19.80;71.60;;;;;;10414183;28;20771;-64
2023/08/30 21:40:24;;;;;;;2.38;1.45;;;19.80;71.50;;;;;;10428836;28;20082;-64
2023/08/30 21:45:25;;;;;;;2.90;1.02;;;19.70;71.40;;;;;;10413823;28;20063;-64
2023/08/30 21:50:26;;;;;;;1.67;1.00;;;19.70;71.40;;;;;;10413061;28;20041;-64
2023/08/30 21:55:26;;;;;;;2.10;1.20;;;19.70;71.40;;;;;;10413167;28;20029;-64
2023/08/30 22:00:28;;;;;;;1.70;1.00;;;19.70;71.30;;;;;;10412590;28;20033;-64
2023/08/30 22:05:30;;;;;;;2.40;0.85;;;19.70;71.30;;;;;;10413108;28;20026;-64
2023/08/30 22:10:30;;;;;;;1.85;1.42;;;19.70;71.20;;;;;;10410172;28;20087;-63
2023/08/30 22:15:31;;;;;;;2.08;1.08;;;19.70;71.20;;;;;;10412550;28;20092;-64
2023/08/30 22:20:32;;;;;;;2.42;0.98;;;19.70;71.10;;;;;;10411877;28;20431;-63
2023/08/30 22:25:33;;;;;;;1.73;1.00;;;19.70;71.00;;;;;;10419995;28;20029;-64
2023/08/30 22:30:33;;;;;;;2.17;1.15;;;19.70;70.90;;;;;;10432950;28;20037;-63
2023/08/30 22:35:34;;;;;;;3.55;1.10;;;19.60;70.90;;;;;;10422540;28;20038;-63
2023/08/30 22:40:35;;;;;;;2.17;1.00;;;19.70;70.90;;;;;;10424904;28;20656;-63
2023/08/30 22:45:36;;;;;;;1.67;0.95;;;19.60;70.80;;;;;;10410236;28;20095;-63
2023/08/30 22:50:37;;;;;;;1.60;0.80;;;19.60;70.80;;;;;;10411301;28;20044;-64
2023/08/30 22:55:38;;;;;;;1.45;1.08;;;19.60;70.80;;;;;;10410700;28;20039;-64
2023/08/30 23:00:39;;;;;;;1.88;1.00;;;19.60;70.80;;;;;;10414438;28;20369;-64
2023/08/30 23:05:40;;;;;;;2.17;0.95;;;19.60;70.80;;;;;;10410288;28;20030;-64
2023/08/30 23:10:42;;;;;;;2.08;1.08;;;19.60;70.60;;;;;;10410249;28;20033;-64
2023/08/30 23:15:44;;;;;;;1.92;1.17;;;19.60;70.60;;;;;;10409834;28;20045;-64
2023/08/30 23:20:44;;;;;;;1.92;1.13;;;19.60;70.60;;;;;;10408242;28;20407;-63
2023/08/30 23:25:45;;;;;;;1.88;0.77;;;19.60;70.60;;;;;;10419365;28;20033;-63
2023/08/30 23:30:46;;;;;;;1.20;0.95;;;19.60;70.50;;;;;;10429077;28;20167;-64
2023/08/30 23:35:47;;;;;;;1.65;0.95;;;19.60;70.60;;;;;;10409169;28;20415;-64
2023/08/30 23:40:48;;;;;;;1.63;0.80;;;19.60;70.60;;;;;;10423507;28;20029;-64
2023/08/30 23:45:51;;;;;;;1.58;0.77;;;19.50;70.50;;;;;;10421226;28;20032;-64
2023/08/30 23:50:52;;;;;;;1.27;0.90;;;19.60;70.50;;;;;;10421585;28;20119;-64
2023/08/30 23:55:53;;;;;;;2.15;1.15;;;19.60;70.40;;;;;;10408853;28;20416;-64
